X  Close Metar Aviation Weather Data     EDDL Düsseldorf Airport
Temperature
1°C Temperature
0°C Dewpoint
93% Humidity



Wind
3 KM/H
2 MPH
1 M/S
2 KTS



70°
ENE
Current Conditions

Clear Clear
Pressure 1018.92 (hPa) - 30.09 (inHg)
Visibility 6.2 (mile) - 10 (km)
Airport
Airport-code EDDL

Location: Düsseldorf Airport
Distance: 100 (km)

Metar:
EDDL 280220Z 07002KT CAVOK 01/00 Q1019 NOSIG

Time: 28-11-2020 03:20 CET